createdAt,value
2018-10-05T00:00:07.188Z,74.83
2018-10-05T00:02:37.197Z,75.34
2018-10-05T00:05:07.575Z,75.56
2018-10-05T00:07:36.797Z,75.56
2018-10-05T00:10:06.862Z,75.34
2018-10-05T00:12:37.253Z,75.72
2018-10-05T00:15:07.421Z,76.19
2018-10-05T00:17:36.861Z,76.37
2018-10-05T00:20:08.001Z,76.50
2018-10-05T00:22:37.192Z,76.96
2018-10-05T00:25:07.304Z,77.34
2018-10-05T00:27:37.342Z,77.60
2018-10-05T00:30:06.802Z,77.83
2018-10-05T00:32:37.347Z,78.19
2018-10-05T00:35:07.289Z,78.44
2018-10-05T00:37:37.228Z,78.42
2018-10-05T00:40:07.117Z,79.09
2018-10-05T00:42:38.205Z,79.22
2018-10-05T00:45:08.431Z,78.90
2018-10-05T00:47:38.657Z,79.40
2018-10-05T00:50:09.056Z,79.50
2018-10-05T00:52:39.237Z,79.62
2018-10-05T00:55:10.094Z,80.02
2018-10-05T00:57:39.291Z,80.22
2018-10-05T01:00:09.179Z,80.20
2018-10-05T01:02:38.977Z,80.25
2018-10-05T01:05:09.709Z,80.58
2018-10-05T01:07:39.041Z,80.61
2018-10-05T01:10:09.361Z,80.72
2018-10-05T01:12:38.896Z,80.97
2018-10-05T01:15:09.262Z,81.11
2018-10-05T01:17:39.312Z,81.37
2018-10-05T01:20:10.083Z,81.44
2018-10-05T01:22:39.321Z,81.16
2018-10-05T01:25:10.081Z,81.60
2018-10-05T01:27:38.966Z,81.77
2018-10-05T01:30:11.851Z,81.62
2018-10-05T01:32:42.701Z,82.16
2018-10-05T01:35:12.433Z,82.07
2018-10-05T01:37:41.030Z,82.22
2018-10-05T01:40:10.712Z,82.51
2018-10-05T01:42:40.105Z,82.61
2018-10-05T01:45:09.380Z,82.47
2018-10-05T01:47:40.101Z,82.87
2018-10-05T01:50:09.318Z,82.53
2018-10-05T01:52:40.057Z,82.47
2018-10-05T01:55:09.353Z,82.52
2018-10-05T01:57:40.144Z,82.64
2018-10-05T02:00:09.577Z,82.59
2018-10-05T02:02:38.841Z,82.15
2018-10-05T02:05:08.309Z,82.01
2018-10-05T02:07:37.268Z,82.13
2018-10-05T02:10:08.151Z,82.25
2018-10-05T02:12:37.226Z,82.22
2018-10-05T02:15:07.309Z,82.40
2018-10-05T02:17:37.164Z,82.14
2018-10-05T02:20:06.737Z,81.83
2018-10-05T02:22:35.742Z,81.69
2018-10-05T02:25:04.590Z,81.90
2018-10-05T02:27:33.684Z,81.95
2018-10-05T02:30:02.064Z,82.02
2018-10-05T02:32:31.195Z,81.87
2018-10-05T02:35:00.381Z,82.11
2018-10-05T02:37:28.729Z,81.95
2018-10-05T02:39:57.968Z,82.17
2018-10-05T02:42:26.303Z,81.94
2018-10-05T02:44:54.653Z,81.76
2018-10-05T02:47:23.013Z,81.31
2018-10-05T02:49:51.344Z,81.56
2018-10-05T02:52:20.574Z,80.89
2018-10-05T02:54:49.811Z,80.84
2018-10-05T02:57:19.200Z,80.89
2018-10-05T02:59:48.420Z,81.09
2018-10-05T03:02:32.257Z,81.25
2018-10-05T03:05:00.585Z,80.84
2018-10-05T03:07:30.035Z,81.15
2018-10-05T03:09:59.478Z,81.38
2018-10-05T03:12:28.081Z,82.09
2018-10-05T03:14:56.417Z,81.86
2018-10-05T03:17:24.777Z,82.24
2018-10-05T03:19:53.308Z,82.21
2018-10-05T03:22:21.607Z,81.97
2018-10-05T03:24:49.948Z,82.38
2018-10-05T03:27:18.277Z,82.37
2018-10-05T03:29:46.674Z,82.19
2018-10-05T03:32:15.262Z,81.92
2018-10-05T03:34:43.604Z,82.58
2018-10-05T03:37:11.955Z,82.10
2018-10-05T03:39:40.305Z,82.15
2018-10-05T03:42:10.005Z,82.51
2018-10-05T03:44:39.457Z,82.25
2018-10-05T03:47:08.762Z,82.30
2018-10-05T03:49:38.276Z,82.16
2018-10-05T03:52:07.838Z,82.28
2018-10-05T03:54:37.165Z,81.92
2018-10-05T03:57:07.201Z,81.60
2018-10-05T03:59:36.642Z,81.40
2018-10-05T04:02:06.081Z,81.34
2018-10-05T04:04:36.941Z,81.57
2018-10-05T04:07:07.283Z,81.40
2018-10-05T04:09:36.664Z,81.38
2018-10-05T04:12:06.914Z,81.09
2018-10-05T04:14:37.109Z,81.42
2018-10-05T04:17:07.619Z,81.04
2018-10-05T04:19:37.078Z,81.05
2018-10-05T04:22:07.205Z,81.25
2018-10-05T04:24:38.285Z,81.23
2018-10-05T04:27:07.418Z,81.03
2018-10-05T04:29:37.289Z,80.92
2018-10-05T04:32:07.511Z,80.92
2018-10-05T04:34:36.879Z,80.89
2018-10-05T04:37:07.662Z,81.02
2018-10-05T04:39:37.188Z,80.48
2018-10-05T04:42:06.811Z,80.43
2018-10-05T04:44:38.741Z,80.12
2018-10-05T04:47:07.437Z,79.64
2018-10-05T04:49:37.915Z,79.46
2018-10-05T04:52:07.803Z,79.06
2018-10-05T04:54:39.021Z,78.89
2018-10-05T04:57:08.349Z,78.05
2018-10-05T04:59:38.656Z,77.67
2018-10-05T05:02:08.937Z,77.60
2018-10-05T05:04:38.152Z,77.27
2018-10-05T05:07:07.646Z,76.95
2018-10-05T05:09:38.112Z,76.42
2018-10-05T05:12:08.324Z,75.73
2018-10-05T05:14:37.284Z,75.56
2018-10-05T05:17:08.713Z,76.09
2018-10-05T05:19:38.060Z,76.82
2018-10-05T05:22:07.169Z,77.37
2018-10-05T05:24:37.079Z,77.17
2018-10-05T05:27:08.125Z,76.83
2018-10-05T05:29:39.091Z,76.29
2018-10-05T05:32:08.908Z,76.06
2018-10-05T05:34:38.118Z,76.91
2018-10-05T05:37:08.083Z,75.93
2018-10-05T05:39:38.088Z,75.66
2018-10-05T05:42:08.457Z,75.41
2018-10-05T05:44:36.793Z,75.38
2018-10-05T05:47:09.129Z,75.65
2018-10-05T05:49:38.613Z,76.42
2018-10-05T05:52:08.660Z,77.58
2018-10-05T05:54:39.314Z,77.74
2018-10-05T05:57:10.089Z,78.15
2018-10-05T05:59:39.344Z,78.14
2018-10-05T06:02:10.168Z,78.13
2018-10-05T06:04:40.160Z,77.68
2018-10-05T06:07:09.689Z,77.76
2018-10-05T06:09:38.932Z,77.52
2018-10-05T06:12:08.209Z,78.26
2018-10-05T06:14:38.485Z,77.65
2018-10-05T06:17:08.802Z,77.54
2018-10-05T06:19:38.404Z,77.02
2018-10-05T06:22:06.827Z,77.01
2018-10-05T06:24:36.143Z,76.70
2018-10-05T06:27:04.909Z,76.12
2018-10-05T06:29:33.437Z,74.79
2018-10-05T06:32:01.776Z,75.04
2018-10-05T06:34:31.040Z,74.15
2018-10-05T06:37:00.271Z,73.54
2018-10-05T06:39:28.606Z,73.83
2018-10-05T06:41:57.860Z,73.57
2018-10-05T06:44:27.101Z,73.24
2018-10-05T06:46:56.454Z,73.51
2018-10-05T06:49:24.888Z,73.70
2018-10-05T06:51:53.233Z,73.90
2018-10-05T06:54:22.628Z,74.75
2018-10-05T06:56:51.058Z,75.29
2018-10-05T06:59:20.309Z,75.02
2018-10-05T07:01:48.680Z,74.16
2018-10-05T07:04:17.053Z,74.45
2018-10-05T07:06:46.409Z,74.04
2018-10-05T07:09:14.789Z,72.93
2018-10-05T07:11:44.309Z,73.15
2018-10-05T07:14:13.526Z,72.22
2018-10-05T07:16:42.793Z,71.83
2018-10-05T07:19:11.646Z,72.08
2018-10-05T07:21:40.921Z,71.08
2018-10-05T07:24:10.615Z,70.45
2018-10-05T07:26:40.015Z,69.23
2018-10-05T07:29:09.748Z,69.52
2018-10-05T07:31:39.484Z,69.41
2018-10-05T07:34:09.084Z,69.21
2018-10-05T07:36:39.245Z,69.15
2018-10-05T07:39:10.900Z,68.02
2018-10-05T07:41:40.119Z,67.34
2018-10-05T07:44:09.357Z,67.27
2018-10-05T07:46:38.953Z,66.99
2018-10-05T07:49:09.345Z,66.52
2018-10-05T07:51:38.477Z,67.64
2018-10-05T07:54:08.997Z,66.19
2018-10-05T07:56:38.449Z,66.44
2018-10-05T07:59:08.193Z,64.18
2018-10-05T08:01:37.341Z,65.52
2018-10-05T08:04:07.500Z,64.79
2018-10-05T08:06:37.558Z,64.12
2018-10-05T08:09:07.884Z,64.36
2018-10-05T08:11:37.855Z,61.93
2018-10-05T08:14:08.031Z,62.59
2018-10-05T08:16:38.689Z,62.25
2018-10-05T08:19:08.819Z,63.06
2018-10-05T08:21:39.174Z,61.80
2018-10-05T08:24:08.288Z,61.99
2018-10-05T08:26:38.086Z,60.93
2018-10-05T08:29:07.809Z,61.24
2018-10-05T08:31:37.809Z,62.04
2018-10-05T08:34:07.960Z,61.19
2018-10-05T08:36:38.415Z,61.35
2018-10-05T08:39:09.629Z,59.74
2018-10-05T08:41:38.876Z,59.44
2018-10-05T08:44:08.674Z,59.45
2018-10-05T08:46:38.282Z,59.91
2018-10-05T08:49:07.733Z,59.13
2018-10-05T08:51:37.710Z,58.56
2018-10-05T08:54:06.825Z,59.61
2018-10-05T08:56:37.233Z,58.35
2018-10-05T08:59:07.173Z,59.21
2018-10-05T09:01:38.360Z,58.46
2018-10-05T09:04:08.577Z,57.81
2018-10-05T09:06:38.366Z,56.20
2018-10-05T09:09:09.358Z,56.31
2018-10-05T09:11:38.606Z,55.97
2018-10-05T09:14:09.309Z,54.73
2018-10-05T09:16:38.665Z,55.64
2018-10-05T09:19:07.750Z,55.92
2018-10-05T09:21:36.722Z,55.88
2018-10-05T09:24:05.873Z,54.69
2018-10-05T09:26:35.063Z,54.57
2018-10-05T09:29:03.485Z,54.75
2018-10-05T09:31:31.832Z,52.87
2018-10-05T09:34:00.173Z,53.33
2018-10-05T09:36:28.541Z,52.64
2018-10-05T09:38:56.898Z,52.40
2018-10-05T09:41:25.325Z,53.49
2018-10-05T09:43:53.711Z,50.64
2018-10-05T09:46:22.052Z,51.20
2018-10-05T09:48:50.384Z,50.82
2018-10-05T09:51:18.728Z,50.35
2018-10-05T09:53:47.068Z,50.61
2018-10-05T09:56:15.417Z,50.97
2018-10-05T09:58:43.751Z,49.94
2018-10-05T10:01:18.453Z,50.46
2018-10-05T10:03:46.819Z,48.74
2018-10-05T10:06:15.160Z,48.86
2018-10-05T10:08:43.489Z,50.02
2018-10-05T10:11:11.867Z,50.12
2018-10-05T10:13:40.243Z,49.37
2018-10-05T10:16:09.445Z,47.93
2018-10-05T10:18:38.306Z,48.36
2018-10-05T10:21:07.706Z,48.62
2018-10-05T10:23:37.201Z,48.95
2018-10-05T10:26:07.602Z,48.56
2018-10-05T10:28:37.788Z,48.49
2018-10-05T10:31:13.490Z,47.94
2018-10-05T10:33:41.898Z,46.73
2018-10-05T10:36:10.209Z,47.32
2018-10-05T10:38:39.890Z,46.72
2018-10-05T10:41:09.241Z,45.74
2018-10-05T10:43:38.757Z,46.63
2018-10-05T10:46:08.006Z,45.77
2018-10-05T10:48:38.664Z,46.68
2018-10-05T10:51:08.677Z,46.68
2018-10-05T10:53:38.709Z,46.17
2018-10-05T10:56:08.067Z,46.40
2018-10-05T10:58:38.504Z,45.60
2018-10-05T11:01:08.215Z,43.11
2018-10-05T11:03:37.377Z,44.01
2018-10-05T11:06:08.012Z,44.55
2018-10-05T11:08:38.377Z,44.86
2018-10-05T11:11:08.739Z,44.47
2018-10-05T11:13:38.264Z,44.65
2018-10-05T11:16:08.821Z,43.47
2018-10-05T11:18:38.841Z,43.68
2018-10-05T11:21:09.022Z,43.24
2018-10-05T11:23:39.404Z,43.47
2018-10-05T11:26:10.142Z,43.34
2018-10-05T11:28:39.537Z,42.03
2018-10-05T11:31:08.420Z,42.31
2018-10-05T11:33:39.106Z,42.15
2018-10-05T11:36:10.294Z,43.35
2018-10-05T11:38:40.266Z,43.54
2018-10-05T11:41:10.948Z,41.55
2018-10-05T11:43:40.197Z,41.33
2018-10-05T11:46:09.489Z,42.35
2018-10-05T11:48:38.830Z,41.97
2018-10-05T11:51:08.960Z,41.76
2018-10-05T11:53:39.549Z,41.12
2018-10-05T11:56:08.814Z,42.59
2018-10-05T11:58:38.677Z,41.04
2018-10-05T12:01:08.717Z,41.52
2018-10-05T12:03:38.948Z,42.30
2018-10-05T12:06:09.249Z,41.82
2018-10-05T12:08:39.869Z,41.17
2018-10-05T12:11:09.222Z,41.05
2018-10-05T12:13:39.856Z,40.86
2018-10-05T12:16:09.173Z,40.55
2018-10-05T12:18:39.084Z,41.18
2018-10-05T12:21:08.955Z,40.00
2018-10-05T12:23:39.340Z,40.75
2018-10-05T12:26:10.017Z,40.36
2018-10-05T12:28:39.333Z,39.89
2018-10-05T12:31:09.973Z,39.67
2018-10-05T12:33:39.209Z,40.56
2018-10-05T12:36:08.882Z,40.26
2018-10-05T12:38:39.249Z,42.06
2018-10-05T12:41:09.979Z,40.39
2018-10-05T12:43:39.392Z,41.02
2018-10-05T12:46:10.078Z,41.40
2018-10-05T12:48:39.441Z,41.76
2018-10-05T12:51:10.153Z,41.69
2018-10-05T12:53:40.700Z,41.51
2018-10-05T12:56:10.059Z,41.71
2018-10-05T12:58:39.702Z,40.71
2018-10-05T13:01:08.933Z,40.99
2018-10-05T13:03:39.325Z,42.12
2018-10-05T13:06:10.106Z,41.57
2018-10-05T13:08:38.981Z,42.40
2018-10-05T13:11:08.476Z,41.62
2018-10-05T13:13:38.539Z,41.18
2018-10-05T13:16:08.385Z,42.51
2018-10-05T13:18:37.953Z,42.14
2018-10-05T13:21:07.149Z,40.49
2018-10-05T13:23:36.851Z,42.17
2018-10-05T13:26:06.802Z,42.81
2018-10-05T13:28:35.147Z,42.67
2018-10-05T13:31:04.221Z,43.72
2018-10-05T13:33:32.566Z,43.29
2018-10-05T13:36:02.874Z,42.94
2018-10-05T13:38:32.957Z,43.40
2018-10-05T13:41:02.625Z,43.13
2018-10-05T13:43:31.376Z,43.24
2018-10-05T13:45:59.778Z,42.85
2018-10-05T13:48:29.111Z,43.71
2018-10-05T13:50:57.447Z,43.28
2018-10-05T13:53:25.798Z,43.13
2018-10-05T13:55:54.133Z,44.07
2018-10-05T13:58:22.521Z,43.60
2018-10-05T14:00:51.725Z,43.57
2018-10-05T14:03:21.097Z,42.92
2018-10-05T14:05:50.313Z,43.40
2018-10-05T14:08:19.623Z,43.52
2018-10-05T14:10:48.850Z,44.29
2018-10-05T14:13:18.197Z,44.08
2018-10-05T14:15:47.538Z,43.19
2018-10-05T14:18:16.744Z,43.94
2018-10-05T14:20:46.025Z,43.62
2018-10-05T14:23:15.231Z,44.36
2018-10-05T14:25:44.485Z,44.82
2018-10-05T14:28:13.851Z,44.82
2018-10-05T14:30:43.059Z,45.70
2018-10-05T14:33:12.388Z,44.39
2018-10-05T14:35:41.781Z,44.95
2018-10-05T14:38:11.029Z,47.06
2018-10-05T14:40:39.400Z,46.48
2018-10-05T14:43:08.834Z,45.72
2018-10-05T14:45:38.999Z,46.52
2018-10-05T14:48:09.615Z,45.20
2018-10-05T14:50:38.841Z,45.70
2018-10-05T14:53:09.352Z,44.88
2018-10-05T14:55:40.107Z,46.02
2018-10-05T14:58:08.736Z,46.01
2018-10-05T15:00:38.905Z,46.58
2018-10-05T15:03:09.624Z,44.98
2018-10-05T15:05:38.881Z,45.21
2018-10-05T15:08:08.780Z,46.06
2018-10-05T15:10:38.781Z,46.83
2018-10-05T15:13:09.129Z,45.75
2018-10-05T15:15:38.801Z,46.11
2018-10-05T15:18:09.061Z,46.95
2018-10-05T15:20:39.384Z,45.88
2018-10-05T15:23:10.196Z,46.11
2018-10-05T15:25:39.563Z,46.11
2018-10-05T15:28:08.800Z,46.99
2018-10-05T15:30:38.802Z,47.55
2018-10-05T15:33:08.753Z,48.53
2018-10-05T15:35:39.409Z,48.53
2018-10-05T15:38:10.201Z,47.89
2018-10-05T15:40:39.463Z,48.07
2018-10-05T15:43:10.236Z,47.94
2018-10-05T15:45:40.457Z,48.61
2018-10-05T15:48:09.824Z,49.02
2018-10-05T15:50:39.247Z,49.68
2018-10-05T15:53:10.168Z,50.15
2018-10-05T15:55:40.638Z,50.80
2018-10-05T15:58:10.022Z,51.32
2018-10-05T16:00:39.274Z,52.19
2018-10-05T16:03:10.140Z,52.58
2018-10-05T16:05:39.652Z,52.95
2018-10-05T16:08:08.935Z,52.65
2018-10-05T16:10:38.220Z,53.02
2018-10-05T16:13:08.058Z,53.00
2018-10-05T16:15:37.762Z,53.37
2018-10-05T16:18:08.176Z,52.89
2018-10-05T16:20:37.135Z,53.90
2018-10-05T16:23:07.418Z,53.31
2018-10-05T16:25:36.802Z,53.43
2018-10-05T16:28:06.673Z,53.46
2018-10-05T16:30:37.989Z,53.71
2018-10-05T16:33:07.205Z,54.19
2018-10-05T16:35:37.468Z,54.28
2018-10-05T16:38:06.851Z,54.41
2018-10-05T16:40:37.185Z,54.86
2018-10-05T16:43:07.160Z,55.05
2018-10-05T16:45:38.031Z,55.38
2018-10-05T16:48:07.761Z,55.60
2018-10-05T16:50:38.345Z,55.95
2018-10-05T16:53:08.241Z,56.83
2018-10-05T16:55:38.036Z,56.60
2018-10-05T16:58:08.035Z,57.39
2018-10-05T17:00:38.197Z,58.47
2018-10-05T17:03:08.244Z,58.55
2018-10-05T17:05:38.844Z,58.72
2018-10-05T17:08:08.717Z,59.00
2018-10-05T17:10:38.398Z,58.89
2018-10-05T17:13:08.765Z,59.18
2018-10-05T17:15:38.318Z,59.38
2018-10-05T17:18:08.054Z,59.57
2018-10-05T17:20:38.369Z,60.19
2018-10-05T17:23:08.321Z,60.39
2018-10-05T17:25:38.551Z,60.39
2018-10-05T17:28:08.333Z,60.72
2018-10-05T17:30:39.620Z,60.82
2018-10-05T17:33:08.977Z,61.44
2018-10-05T17:35:39.265Z,61.86
2018-10-05T17:38:10.161Z,62.11
2018-10-05T17:40:40.409Z,62.22
2018-10-05T17:43:08.753Z,62.58
2018-10-05T17:45:38.757Z,63.00
2018-10-05T17:48:09.498Z,63.13
2018-10-05T17:50:39.169Z,63.29
2018-10-05T17:53:08.122Z,63.97
2018-10-05T17:55:38.659Z,63.75
2018-10-05T17:58:07.985Z,64.14
2018-10-05T18:00:38.112Z,64.38
2018-10-05T18:03:08.169Z,64.61
2018-10-05T18:05:38.857Z,64.59
2018-10-05T18:08:08.757Z,64.62
2018-10-05T18:10:38.125Z,64.62
2018-10-05T18:13:08.638Z,64.75
2018-10-05T18:15:37.446Z,65.40
2018-10-05T18:18:07.914Z,65.50
2018-10-05T18:20:38.324Z,66.42
2018-10-05T18:23:08.282Z,66.71
2018-10-05T18:25:39.009Z,67.23
2018-10-05T18:28:08.657Z,66.97
2018-10-05T18:30:39.461Z,66.84
2018-10-05T18:33:08.347Z,67.61
2018-10-05T18:35:39.133Z,67.78
2018-10-05T18:38:09.469Z,68.19
2018-10-05T18:40:38.429Z,67.74
2018-10-05T18:43:06.951Z,67.53
2018-10-05T18:45:38.052Z,66.69
2018-10-05T18:48:08.961Z,67.00
2018-10-05T18:50:38.097Z,68.32
2018-10-05T18:53:08.280Z,68.78
2018-10-05T18:55:38.073Z,68.87
2018-10-05T18:58:08.669Z,68.97
2018-10-05T19:00:38.905Z,68.73
2018-10-05T19:03:10.159Z,69.25
2018-10-05T19:05:39.523Z,69.44
2018-10-05T19:08:08.853Z,69.67
2018-10-05T19:10:38.377Z,69.60
2018-10-05T19:13:08.602Z,69.47
2018-10-05T19:15:38.017Z,69.83
2018-10-05T19:18:08.462Z,70.17
2018-10-05T19:20:37.876Z,70.03
2018-10-05T19:23:08.739Z,69.92
2018-10-05T19:25:38.138Z,70.23
2018-10-05T19:28:08.658Z,70.01
2018-10-05T19:30:38.455Z,70.71
2018-10-05T19:33:08.673Z,70.98
2018-10-05T19:35:39.025Z,71.28
2018-10-05T19:38:09.662Z,71.86
2018-10-05T19:40:39.071Z,71.95
2018-10-05T19:43:10.200Z,71.98
2018-10-05T19:45:39.619Z,71.45
2018-10-05T19:48:09.446Z,71.72
2018-10-05T19:50:38.465Z,71.63
2018-10-05T19:53:09.381Z,71.47
2018-10-05T19:55:39.072Z,71.22
2018-10-05T19:58:08.676Z,71.20
2018-10-05T20:00:37.792Z,71.32
2018-10-05T20:03:08.456Z,71.16
2018-10-05T20:05:38.436Z,71.64
2018-10-05T20:08:08.909Z,70.95
2018-10-05T20:10:38.870Z,70.80
2018-10-05T20:13:10.021Z,70.63
2018-10-05T20:15:39.269Z,71.03
2018-10-05T20:18:09.017Z,70.94
2018-10-05T20:20:38.933Z,71.32
2018-10-05T20:23:10.001Z,71.62
2018-10-05T20:25:39.101Z,71.68
2018-10-05T20:28:08.762Z,71.23
2018-10-05T20:30:38.381Z,71.86
2018-10-05T20:33:08.834Z,71.96
2018-10-05T20:35:38.734Z,72.18
2018-10-05T20:38:09.998Z,72.23
2018-10-05T20:40:38.846Z,72.27
2018-10-05T20:43:08.821Z,72.62
2018-10-05T20:45:38.941Z,72.42
2018-10-05T20:48:08.474Z,72.85
2018-10-05T20:50:38.306Z,73.16
2018-10-05T20:53:07.841Z,73.24
2018-10-05T20:55:38.349Z,73.48
2018-10-05T20:58:08.109Z,74.24
2018-10-05T21:00:38.625Z,74.15
2018-10-05T21:03:08.021Z,74.17
2018-10-05T21:05:38.250Z,74.11
2018-10-05T21:08:08.505Z,74.00
2018-10-05T21:10:38.835Z,74.49
2018-10-05T21:13:08.621Z,74.27
2018-10-05T21:15:38.085Z,74.11
2018-10-05T21:18:08.422Z,73.74
2018-10-05T21:20:38.993Z,73.62
2018-10-05T21:23:08.708Z,73.90
2018-10-05T21:25:39.013Z,73.69
2018-10-05T21:28:08.729Z,73.84
2018-10-05T21:30:38.331Z,73.65
2018-10-05T21:33:08.194Z,73.55
2018-10-05T21:35:39.042Z,73.50
2018-10-05T21:38:08.556Z,73.67
2018-10-05T21:40:39.105Z,74.26
2018-10-05T21:43:09.039Z,74.88
2018-10-05T21:45:38.775Z,74.66
2018-10-05T21:48:08.187Z,74.67
2018-10-05T21:50:37.224Z,74.95
2018-10-05T21:53:07.906Z,75.51
2018-10-05T21:55:37.968Z,75.31
2018-10-05T21:58:08.182Z,75.45
2018-10-05T22:00:41.505Z,75.78
2018-10-05T22:03:10.657Z,76.25
2018-10-05T22:05:39.165Z,76.03
2018-10-05T22:08:08.785Z,75.93
2018-10-05T22:10:38.222Z,75.66
2018-10-05T22:13:08.454Z,75.70
2018-10-05T22:15:39.390Z,75.59
2018-10-05T22:18:08.681Z,75.75
2018-10-05T22:20:38.081Z,75.91
2018-10-05T22:23:08.326Z,76.08
2018-10-05T22:25:38.773Z,75.58
2018-10-05T22:28:08.068Z,75.64
2018-10-05T22:30:39.227Z,75.77
2018-10-05T22:33:09.231Z,75.44
2018-10-05T22:35:38.728Z,75.95
2018-10-05T22:38:08.133Z,75.97
2018-10-05T22:40:38.393Z,76.14
2018-10-05T22:43:06.784Z,76.45
2018-10-05T22:45:36.549Z,76.09
2018-10-05T22:48:06.168Z,76.55
2018-10-05T22:50:37.129Z,76.28
2018-10-05T22:53:08.745Z,76.66
2018-10-05T22:55:38.042Z,76.89
2018-10-05T22:58:08.077Z,76.78
2018-10-05T23:00:38.173Z,77.09
2018-10-05T23:03:08.890Z,77.22
2018-10-05T23:05:39.629Z,77.32
2018-10-05T23:08:08.856Z,77.31
2018-10-05T23:10:38.165Z,77.28
2018-10-05T23:13:09.338Z,77.30
2018-10-05T23:15:38.411Z,78.09
2018-10-05T23:18:08.125Z,77.29
2018-10-05T23:20:37.720Z,77.24
2018-10-05T23:23:06.917Z,77.42
2018-10-05T23:25:37.334Z,77.68
2018-10-05T23:28:07.441Z,77.78
2018-10-05T23:30:37.397Z,77.88
2018-10-05T23:33:07.461Z,77.73
2018-10-05T23:35:36.819Z,77.86
2018-10-05T23:38:05.241Z,77.56
2018-10-05T23:40:34.706Z,77.45
2018-10-05T23:43:04.052Z,77.06
2018-10-05T23:45:32.406Z,76.88
2018-10-05T23:48:01.765Z,77.22
2018-10-05T23:50:31.137Z,76.79
2018-10-05T23:52:59.497Z,77.26
2018-10-05T23:55:27.837Z,76.88
2018-10-05T23:57:56.182Z,76.60
